Time;durP1;ratioP1;P1;durP2;ratioP2;P2;SDS_P1;SDS_P2;PMS_P1;PMS_P2;Temp;Humidity;BMP_temperature;BMP_pressure;BME280_temperature;BME280_humidity;BME280_pressure;Samples;Min_cycle;Max_cycle;Signal;HPM_P1;HPM_P2
2022/04/22 00:01:43;;;;;;;17.73;7.28;;;;;;;;;;5023429;28;20068;-57
2022/04/22 00:04:10;;;;;;;13.40;5.88;;;;;;;;;;5024538;28;20049;-56
2022/04/22 00:06:36;;;;;;;10.73;5.97;;;;;;;;;;5023668;28;20088;-57
2022/04/22 00:09:02;;;;;;;12.27;5.82;;;;;;;;;;5024451;28;20042;-57
2022/04/22 00:11:29;;;;;;;9.93;5.93;;;;;;;;;;5024560;28;20068;-56
2022/04/22 00:13:57;;;;;;;11.85;5.95;;;;;;;;;;5024339;28;20046;-56
2022/04/22 00:16:25;;;;;;;9.52;5.78;;;;;;;;;;5023449;28;20049;-56
2022/04/22 00:18:51;;;;;;;11.82;5.90;;;;;;;;;;5023392;28;20042;-57
2022/04/22 00:21:17;;;;;;;11.82;5.78;;;;;;;;;;5024315;28;20237;-57
2022/04/22 00:23:44;;;;;;;13.13;6.47;;;;;;;;;;5024245;28;20089;-57
2022/04/22 00:26:10;;;;;;;14.88;6.30;;;;;;;;;;5024001;28;20518;-56
2022/04/22 00:28:37;;;;;;;17.10;6.40;;;;;;;;;;5031233;28;20060;-56
2022/04/22 00:31:03;;;;;;;11.95;6.22;;;;;;;;;;5026984;28;20045;-56
2022/04/22 00:33:29;;;;;;;12.88;5.85;;;;;;;;;;5028127;28;20124;-57
2022/04/22 00:35:55;;;;;;;12.70;7.10;;;;;;;;;;5028594;28;20049;-57
2022/04/22 00:38:21;;;;;;;14.93;6.32;;;;;;;;;;5028213;28;20124;-57
2022/04/22 00:40:47;;;;;;;11.68;5.95;;;;;;;;;;5028111;28;20060;-56
2022/04/22 00:43:15;;;;;;;13.50;7.35;;;;;;;;;;5028081;28;20450;-56
2022/04/22 00:45:42;;;;;;;11.75;6.78;;;;;;;;;;5026673;28;20052;-56
2022/04/22 00:48:08;;;;;;;14.18;6.65;;;;;;;;;;5027071;28;20048;-57
2022/04/22 00:50:34;;;;;;;10.80;6.55;;;;;;;;;;5028029;28;20041;-57
2022/04/22 00:53:01;;;;;;;15.20;6.90;;;;;;;;;;5028043;28;20091;-57
2022/04/22 00:55:28;;;;;;;11.10;6.40;;;;;;;;;;5028005;28;20476;-56
2022/04/22 00:57:54;;;;;;;12.80;6.40;;;;;;;;;;5027319;28;20049;-57
2022/04/22 01:00:20;;;;;;;15.98;6.80;;;;;;;;;;5026818;28;20049;-56
2022/04/22 01:02:46;;;;;;;14.38;7.70;;;;;;;;;;5034345;23;20064;-57
2022/04/22 01:10:43;;;;;;;12.95;7.10;;;;;;;;;;5027155;28;20472;-57
2022/04/22 01:13:09;;;;;;;19.60;7.97;;;;;;;;;;5027458;28;20127;-57
2022/04/22 01:15:36;;;;;;;15.00;7.10;;;;;;;;;;5026747;28;20045;-57
2022/04/22 01:18:03;;;;;;;19.75;8.40;;;;;;;;;;5027724;28;20064;-57
2022/04/22 01:20:29;;;;;;;19.17;9.00;;;;;;;;;;5027573;28;20076;-56
2022/04/22 01:22:55;;;;;;;15.80;7.50;;;;;;;;;;5027246;28;20529;-57
2022/04/22 01:25:21;;;;;;;14.60;7.43;;;;;;;;;;5027512;28;20041;-56
2022/04/22 01:27:49;;;;;;;19.08;7.75;;;;;;;;;;5026965;28;20441;-56
2022/04/22 01:30:19;;;;;;;20.35;8.38;;;;;;;;;;5027066;28;20077;-57
2022/04/22 01:32:46;;;;;;;20.40;7.78;;;;;;;;;;5026845;28;20049;-57
2022/04/22 01:35:13;;;;;;;21.38;8.65;;;;;;;;;;5027332;28;20049;-56
2022/04/22 01:37:39;;;;;;;17.83;7.63;;;;;;;;;;5026494;28;20044;-57
2022/04/22 01:40:05;;;;;;;19.25;8.50;;;;;;;;;;5026773;28;20091;-56
2022/04/22 01:42:31;;;;;;;16.90;7.57;;;;;;;;;;5027064;28;20103;-57
2022/04/22 01:44:57;;;;;;;17.58;7.88;;;;;;;;;;5026488;28;20056;-56
2022/04/22 01:47:24;;;;;;;17.98;8.30;;;;;;;;;;5009220;28;20450;-55
2022/04/22 01:49:50;;;;;;;14.43;7.55;;;;;;;;;;5026954;28;20103;-56
2022/04/22 01:52:16;;;;;;;14.20;7.40;;;;;;;;;;5026525;28;20141;-57
2022/04/22 01:54:42;;;;;;;18.23;8.18;;;;;;;;;;5026252;28;20132;-56
2022/04/22 01:57:08;;;;;;;14.25;7.07;;;;;;;;;;5027035;28;20578;-57
2022/04/22 01:59:34;;;;;;;16.10;8.30;;;;;;;;;;5026592;28;20044;-56
2022/04/22 02:02:01;;;;;;;17.92;7.50;;;;;;;;;;5026072;28;20049;-57
2022/04/22 02:04:27;;;;;;;17.77;7.35;;;;;;;;;;5026920;28;20191;-57
2022/04/22 02:06:53;;;;;;;15.55;7.47;;;;;;;;;;5031394;28;20479;-57
2022/04/22 02:09:19;;;;;;;19.98;7.72;;;;;;;;;;5045927;28;20041;-57
2022/04/22 02:11:46;;;;;;;16.88;7.57;;;;;;;;;;5046441;28;20211;-57
2022/04/22 02:14:12;;;;;;;16.83;7.72;;;;;;;;;;5028739;28;20159;-56
2022/04/22 02:16:38;;;;;;;20.45;7.78;;;;;;;;;;5045426;28;20049;-56
2022/04/22 02:19:04;;;;;;;14.98;7.28;;;;;;;;;;5046375;28;20047;-57
2022/04/22 02:21:30;;;;;;;20.30;8.00;;;;;;;;;;5045615;28;20041;-57
2022/04/22 02:23:57;;;;;;;17.58;7.72;;;;;;;;;;5046381;28;20056;-57
2022/04/22 02:26:23;;;;;;;18.63;7.47;;;;;;;;;;5046221;28;20064;-56
2022/04/22 02:28:49;;;;;;;15.95;8.10;;;;;;;;;;5046145;28;20049;-56
2022/04/22 02:31:15;;;;;;;20.08;8.75;;;;;;;;;;5045406;28;20049;-56
2022/04/22 02:33:42;;;;;;;19.70;8.02;;;;;;;;;;5045620;28;20433;-56
2022/04/22 02:36:09;;;;;;;15.77;7.03;;;;;;;;;;5045880;28;20040;-56
2022/04/22 02:38:35;;;;;;;22.38;8.45;;;;;;;;;;5045788;28;20116;-56
2022/04/22 02:46:31;;;;;;;16.70;7.55;;;;;;;;;;5044788;28;20478;-57
2022/04/22 02:48:58;;;;;;;14.10;6.75;;;;;;;;;;5046048;28;20033;-56
2022/04/22 02:51:24;;;;;;;17.20;6.57;;;;;;;;;;5027950;28;20478;-56
2022/04/22 02:53:52;;;;;;;15.57;6.90;;;;;;;;;;5044489;28;20689;-57
2022/04/22 02:56:19;;;;;;;18.00;6.90;;;;;;;;;;5045065;28;20049;-57
2022/04/22 02:58:45;;;;;;;15.52;7.18;;;;;;;;;;5045672;28;20137;-57
2022/04/22 03:01:13;;;;;;;15.63;6.80;;;;;;;;;;5045313;28;20045;-56
2022/04/22 03:03:39;;;;;;;17.20;7.07;;;;;;;;;;5045223;28;20045;-57
2022/04/22 03:06:05;;;;;;;16.13;6.90;;;;;;;;;;5045587;28;20041;-57
2022/04/22 03:08:32;;;;;;;13.32;6.55;;;;;;;;;;5045131;28;20041;-56
2022/04/22 03:10:58;;;;;;;13.82;6.82;;;;;;;;;;5045368;28;20383;-56
2022/04/22 03:13:24;;;;;;;11.75;6.20;;;;;;;;;;5045271;28;20044;-56
2022/04/22 03:15:50;;;;;;;13.63;6.22;;;;;;;;;;5044311;28;20069;-56
2022/04/22 03:18:17;;;;;;;11.55;6.00;;;;;;;;;;5045362;28;20037;-56
2022/04/22 03:20:43;;;;;;;12.13;6.88;;;;;;;;;;5045181;28;20049;-56
2022/04/22 03:23:09;;;;;;;14.15;6.22;;;;;;;;;;5044878;28;20052;-56
2022/04/22 03:25:35;;;;;;;13.85;5.68;;;;;;;;;;5044683;28;20041;-56
2022/04/22 03:28:03;;;;;;;15.25;6.40;;;;;;;;;;5044954;28;20139;-57
2022/04/22 03:30:29;;;;;;;9.80;6.10;;;;;;;;;;5044523;28;20095;-57
2022/04/22 03:32:55;;;;;;;10.20;5.18;;;;;;;;;;5045355;28;20037;-57
2022/04/22 03:35:21;;;;;;;14.63;5.65;;;;;;;;;;5045055;28;20064;-57
2022/04/22 03:37:48;;;;;;;11.43;5.07;;;;;;;;;;5044431;28;20140;-56
2022/04/22 03:40:14;;;;;;;7.57;4.50;;;;;;;;;;5044194;28;20045;-57
2022/04/22 03:42:41;;;;;;;10.27;5.60;;;;;;;;;;5044381;28;20041;-56
2022/04/22 03:45:07;;;;;;;12.30;5.65;;;;;;;;;;5043958;28;20049;-57
2022/04/22 03:47:33;;;;;;;11.60;5.50;;;;;;;;;;5044455;28;20045;-57
2022/04/22 03:49:59;;;;;;;11.50;5.57;;;;;;;;;;5032494;28;20041;-57
2022/04/22 03:52:25;;;;;;;12.02;4.82;;;;;;;;;;5024420;28;20060;-57
2022/04/22 03:54:52;;;;;;;9.43;4.65;;;;;;;;;;5024069;28;20411;-57
2022/04/22 04:00:03;;;;;;;10.77;4.63;;;;;;;;;;5024237;28;20136;-57
2022/04/22 04:02:30;;;;;;;9.60;4.45;;;;;;;;;;5007223;28;20053;-56
2022/04/22 04:04:56;;;;;;;10.82;4.82;;;;;;;;;;5024576;28;20041;-57
2022/04/22 04:07:22;;;;;;;11.02;4.93;;;;;;;;;;5024456;28;20053;-57
2022/04/22 04:18:03;;;;;;;12.18;4.85;;;;;;;;;;5024530;28;20458;-57
2022/04/22 04:23:15;;;;;;;10.02;4.80;;;;;;;;;;5024564;28;20041;-57
2022/04/22 04:25:41;;;;;;;9.57;4.47;;;;;;;;;;5024522;28;20053;-56
2022/04/22 04:28:10;;;;;;;13.90;4.75;;;;;;;;;;5024418;28;20049;-57
2022/04/22 04:30:37;;;;;;;8.10;4.60;;;;;;;;;;5023177;28;20112;-57
2022/04/22 04:33:04;;;;;;;7.70;4.43;;;;;;;;;;5024278;28;20476;-57
2022/04/22 04:35:31;;;;;;;7.68;4.03;;;;;;;;;;5024169;28;20083;-56
2022/04/22 04:37:57;;;;;;;9.07;4.32;;;;;;;;;;5024570;28;20442;-57
2022/04/22 04:40:23;;;;;;;13.07;4.35;;;;;;;;;;5024172;28;20057;-57
2022/04/22 04:42:52;;;;;;;12.73;4.22;;;;;;;;;;5023771;28;20041;-57
2022/04/22 04:45:18;;;;;;;8.13;4.63;;;;;;;;;;5022822;28;20049;-57
2022/04/22 04:47:44;;;;;;;9.55;4.63;;;;;;;;;;5006362;28;20060;-56
2022/04/22 04:50:11;;;;;;;13.35;4.80;;;;;;;;;;5024075;28;20053;-57
2022/04/22 04:52:37;;;;;;;8.68;4.35;;;;;;;;;;5023736;28;20402;-57
2022/04/22 04:55:05;;;;;;;8.07;4.65;;;;;;;;;;5023647;28;20498;-57
2022/04/22 04:57:31;;;;;;;9.90;4.43;;;;;;;;;;5023894;28;20418;-56
2022/04/22 04:59:57;;;;;;;7.85;4.15;;;;;;;;;;5023198;28;20053;-56
2022/04/22 05:02:23;;;;;;;10.35;4.78;;;;;;;;;;5023838;28;20042;-56
2022/04/22 05:04:49;;;;;;;14.55;4.72;;;;;;;;;;5024100;28;20057;-57
2022/04/22 05:07:16;;;;;;;8.32;4.38;;;;;;;;;;5023998;28;20434;-56
2022/04/22 05:09:42;;;;;;;8.25;4.10;;;;;;;;;;5023845;28;20037;-56
2022/04/22 05:12:10;;;;;;;8.50;4.05;;;;;;;;;;5024212;28;20042;-56
2022/04/22 05:14:36;;;;;;;10.73;3.97;;;;;;;;;;5022985;28;20041;-57
2022/04/22 05:17:03;;;;;;;14.65;4.35;;;;;;;;;;5027097;28;20098;-56
2022/04/22 05:19:29;;;;;;;7.85;3.75;;;;;;;;;;5027873;28;20477;-56
2022/04/22 05:21:55;;;;;;;8.75;4.00;;;;;;;;;;5027854;28;20132;-56
2022/04/22 05:24:21;;;;;;;12.27;4.28;;;;;;;;;;5027420;28;20403;-56
2022/04/22 05:26:48;;;;;;;7.30;3.90;;;;;;;;;;5026529;28;20426;-57
2022/04/22 05:34:44;;;;;;;8.93;4.20;;;;;;;;;;5008687;28;20080;-56
2022/04/22 05:37:10;;;;;;;9.38;4.25;;;;;;;;;;5027232;28;20045;-56
2022/04/22 05:39:36;;;;;;;7.50;4.05;;;;;;;;;;5026819;28;20046;-56
2022/04/22 05:42:02;;;;;;;8.90;3.75;;;;;;;;;;5028448;28;20128;-56
2022/04/22 05:44:29;;;;;;;10.30;4.20;;;;;;;;;;5046412;28;20580;-56
2022/04/22 05:46:55;;;;;;;8.77;3.88;;;;;;;;;;5047327;28;20044;-56
2022/04/22 05:49:21;;;;;;;8.65;3.95;;;;;;;;;;5012187;28;20121;-56
2022/04/22 05:51:47;;;;;;;8.80;3.58;;;;;;;;;;5046435;28;20075;-56
2022/04/22 05:54:13;;;;;;;9.82;4.57;;;;;;;;;;5046592;28;20093;-56
2022/04/22 05:56:40;;;;;;;10.45;4.25;;;;;;;;;;5046478;28;20056;-56
2022/04/22 05:59:06;;;;;;;9.05;3.83;;;;;;;;;;5046253;28;20060;-56
2022/04/22 06:01:32;;;;;;;7.40;3.78;;;;;;;;;;5040476;28;20044;-56
2022/04/22 06:03:58;;;;;;;14.90;3.90;;;;;;;;;;5008378;28;20057;-55
2022/04/22 06:06:24;;;;;;;8.75;3.70;;;;;;;;;;5026091;28;20058;-56
2022/04/22 06:11:35;;;;;;;7.68;3.58;;;;;;;;;;5007814;28;20045;-56
2022/04/22 06:14:01;;;;;;;7.25;3.78;;;;;;;;;;5030905;28;20128;-57
2022/04/22 06:16:27;;;;;;;8.07;3.80;;;;;;;;;;5027849;28;20049;-56
2022/04/22 06:18:54;;;;;;;11.02;4.60;;;;;;;;;;5026237;28;20415;-56
2022/04/22 06:21:20;;;;;;;11.00;4.07;;;;;;;;;;5026264;28;20578;-56
2022/04/22 06:23:46;;;;;;;9.70;3.55;;;;;;;;;;5026153;28;20045;-56
2022/04/22 06:26:12;;;;;;;8.63;4.03;;;;;;;;;;5026104;28;20041;-56
2022/04/22 06:28:38;;;;;;;9.00;4.07;;;;;;;;;;5024598;28;20480;-57
2022/04/22 06:31:04;;;;;;;10.10;4.07;;;;;;;;;;5025096;28;20045;-57
2022/04/22 06:33:31;;;;;;;6.22;4.07;;;;;;;;;;5025831;28;20532;-57
2022/04/22 06:36:00;;;;;;;9.60;4.55;;;;;;;;;;5026020;28;20045;-57
2022/04/22 06:38:27;;;;;;;9.75;4.15;;;;;;;;;;5026464;28;20044;-56
2022/04/22 06:46:23;;;;;;;7.68;3.67;;;;;;;;;;5025400;28;20041;-55
2022/04/22 06:48:50;;;;;;;10.23;4.10;;;;;;;;;;5025181;28;20045;-56
2022/04/22 06:51:17;;;;;;;9.35;3.85;;;;;;;;;;5025987;28;20049;-56
2022/04/22 06:53:43;;;;;;;8.80;3.72;;;;;;;;;;5025368;28;20056;-56
2022/04/22 06:56:13;;;;;;;5.82;3.80;;;;;;;;;;5025409;28;20071;-57
2022/04/22 06:58:40;;;;;;;8.80;3.60;;;;;;;;;;5007745;28;20085;-56
2022/04/22 07:01:07;;;;;;;10.85;3.50;;;;;;;;;;5024485;28;20111;-56
2022/04/22 07:03:33;;;;;;;5.75;3.20;;;;;;;;;;5024769;28;20502;-57
2022/04/22 07:05:59;;;;;;;8.15;3.88;;;;;;;;;;5025837;28;20054;-57
2022/04/22 07:08:25;;;;;;;9.38;3.63;;;;;;;;;;5025817;28;20176;-56
2022/04/22 07:10:52;;;;;;;9.63;3.45;;;;;;;;;;5025073;28;20410;-57
2022/04/22 07:13:18;;;;;;;5.25;2.80;;;;;;;;;;5024984;28;20053;-56
2022/04/22 07:15:46;;;;;;;7.43;3.60;;;;;;;;;;5023846;28;20479;-56
2022/04/22 07:18:12;;;;;;;5.53;3.75;;;;;;;;;;5025356;28;20099;-57
2022/04/22 07:20:39;;;;;;;7.18;3.60;;;;;;;;;;5025119;28;20574;-57
2022/04/22 07:23:05;;;;;;;7.90;2.95;;;;;;;;;;5025096;28;20046;-56
2022/04/22 07:25:31;;;;;;;4.53;3.17;;;;;;;;;;5024876;28;20172;-57
2022/04/22 07:27:58;;;;;;;6.35;3.05;;;;;;;;;;5025126;28;20499;-57
2022/04/22 07:30:25;;;;;;;7.55;3.20;;;;;;;;;;5023921;28;20690;-56
2022/04/22 07:32:52;;;;;;;9.48;3.33;;;;;;;;;;5024592;28;20272;-57
2022/04/22 07:35:19;;;;;;;6.82;3.00;;;;;;;;;;5024913;28;20545;-57
2022/04/22 07:37:46;;;;;;;8.38;3.45;;;;;;;;;;5024648;28;20132;-57
2022/04/22 07:40:13;;;;;;;6.72;3.00;;;;;;;;;;5024695;28;20034;-57
2022/04/22 07:42:42;;;;;;;9.48;3.28;;;;;;;;;;5024458;28;20045;-57
2022/04/22 07:47:53;;;;;;;19.38;3.47;;;;;;;;;;5024548;28;20144;-57
2022/04/22 07:50:20;;;;;;;5.63;2.60;;;;;;;;;;5024423;28;20055;-57
2022/04/22 07:52:47;;;;;;;5.15;2.85;;;;;;;;;;5024273;28;20668;-57
2022/04/22 07:55:14;;;;;;;16.02;3.05;;;;;;;;;;5023879;28;20057;-57
2022/04/22 07:57:41;;;;;;;5.13;2.50;;;;;;;;;;5029690;28;20037;-57
2022/04/22 08:00:07;;;;;;;6.10;2.47;;;;;;;;;;5023673;28;20065;-56
2022/04/22 08:02:34;;;;;;;7.97;2.38;;;;;;;;;;5039195;28;20051;-55
2022/04/22 08:05:00;;;;;;;9.93;2.80;;;;;;;;;;5040559;28;20044;-57
2022/04/22 08:07:26;;;;;;;6.05;2.60;;;;;;;;;;5031023;28;20079;-57
2022/04/22 08:09:54;;;;;;;4.68;2.30;;;;;;;;;;5027356;28;20045;-58
2022/04/22 08:12:21;;;;;;;3.53;2.30;;;;;;;;;;5024332;28;20077;-58
2022/04/22 08:14:48;;;;;;;9.70;2.20;;;;;;;;;;5028950;28;20047;-58
2022/04/22 08:17:16;;;;;;;5.03;2.15;;;;;;;;;;5024280;28;20042;-58
2022/04/22 08:19:46;;;;;;;8.68;2.40;;;;;;;;;;5042845;28;20053;-57
2022/04/22 08:22:12;;;;;;;6.75;2.30;;;;;;;;;;5035705;28;20490;-58
2022/04/22 08:24:38;;;;;;;11.18;2.33;;;;;;;;;;5038204;28;20049;-58
2022/04/22 08:27:05;;;;;;;7.22;2.30;;;;;;;;;;5025349;28;20038;-57
2022/04/22 08:29:31;;;;;;;7.93;2.13;;;;;;;;;;5023632;28;20041;-57
2022/04/22 08:31:57;;;;;;;9.55;2.20;;;;;;;;;;5007357;28;20042;-57
2022/04/22 08:34:23;;;;;;;4.15;2.00;;;;;;;;;;5007046;28;20092;-57
2022/04/22 08:36:49;;;;;;;5.97;2.33;;;;;;;;;;5023854;28;20060;-58
2022/04/22 08:39:16;;;;;;;5.63;2.30;;;;;;;;;;5024554;28;20687;-57
2022/04/22 08:41:42;;;;;;;7.88;1.83;;;;;;;;;;5024050;28;20395;-57
2022/04/22 08:44:11;;;;;;;13.05;2.13;;;;;;;;;;5005428;28;20052;-58
2022/04/22 08:50:06;;;;;;;5.55;2.13;;;;;;;;;;5043922;28;20052;-57
2022/04/22 08:52:23;;;;;;;6.93;1.88;;;;;;;;;;5047649;28;20053;-57
2022/04/22 08:54:49;;;;;;;5.85;2.00;;;;;;;;;;5046838;28;20136;-57
2022/04/22 08:57:16;;;;;;;6.70;2.72;;;;;;;;;;5047603;28;20049;-57
2022/04/22 08:59:42;;;;;;;5.72;2.42;;;;;;;;;;5046679;28;20065;-57
2022/04/22 09:02:08;;;;;;;5.53;3.00;;;;;;;;;;5047997;28;20090;-57
2022/04/22 09:04:34;;;;;;;7.53;2.83;;;;;;;;;;5047300;28;20060;-57
2022/04/22 09:07:01;;;;;;;4.90;2.35;;;;;;;;;;5047184;28;20509;-57
2022/04/22 09:09:28;;;;;;;3.60;2.20;;;;;;;;;;5047587;28;20045;-58
2022/04/22 09:11:54;;;;;;;7.75;2.20;;;;;;;;;;5047441;28;20675;-58
2022/04/22 09:14:24;;;;;;;5.60;2.22;;;;;;;;;;5046754;28;20033;-58
2022/04/22 09:16:51;;;;;;;6.25;2.50;;;;;;;;;;5047241;28;20367;-58
2022/04/22 09:19:18;;;;;;;7.10;2.10;;;;;;;;;;5047618;28;20044;-57
2022/04/22 09:21:55;;;;;;;5.80;2.43;;;;;;;;;;5030977;28;20052;-57
2022/04/22 09:24:22;;;;;;;6.53;2.35;;;;;;;;;;5027283;28;20355;-58
2022/04/22 09:27:02;;;;;;;7.80;2.28;;;;;;;;;;5027127;28;20045;-58
2022/04/22 09:29:28;;;;;;;4.43;2.40;;;;;;;;;;5027140;28;20064;-58
2022/04/22 09:31:55;;;;;;;7.45;2.17;;;;;;;;;;5026888;28;20495;-57
2022/04/22 09:34:36;;;;;;;8.80;3.17;;;;;;;;;;5027400;28;20672;-58
2022/04/22 09:42:47;;;;;;;8.15;2.15;;;;;;;;;;5041788;28;20119;-58
2022/04/22 09:45:14;;;;;;;7.60;2.28;;;;;;;;;;5026630;28;20056;-57
2022/04/22 09:47:41;;;;;;;7.00;2.28;;;;;;;;;;5023863;28;20570;-57
2022/04/22 09:50:11;;;;;;;5.78;2.92;;;;;;;;;;5027278;28;20092;-57
2022/04/22 09:52:43;;;;;;;8.45;2.28;;;;;;;;;;5026939;28;20103;-58
2022/04/22 09:55:10;;;;;;;5.93;2.10;;;;;;;;;;5026687;28;20107;-57
2022/04/22 09:57:49;;;;;;;10.18;2.10;;;;;;;;;;5026326;28;20076;-57
2022/04/22 10:00:17;;;;;;;3.65;1.88;;;;;;;;;;5026023;28;20144;-57
2022/04/22 10:02:44;;;;;;;5.10;2.10;;;;;;;;;;5026205;28;20103;-57
2022/04/22 10:05:12;;;;;;;7.88;2.47;;;;;;;;;;5026342;28;20041;-57
2022/04/22 10:07:42;;;;;;;6.32;2.17;;;;;;;;;;5024910;28;20495;-57
2022/04/22 10:10:08;;;;;;;8.02;2.33;;;;;;;;;;5024136;28;20055;-57
2022/04/22 10:12:34;;;;;;;5.38;2.45;;;;;;;;;;5012757;28;20049;-57
2022/04/22 10:15:01;;;;;;;8.75;2.78;;;;;;;;;;5042848;28;20051;-57
2022/04/22 10:17:27;;;;;;;5.95;2.42;;;;;;;;;;5041942;28;20052;-57
2022/04/22 10:19:54;;;;;;;4.50;2.63;;;;;;;;;;5040016;28;20609;-57
2022/04/22 10:22:21;;;;;;;9.82;2.63;;;;;;;;;;5045333;28;20056;-57
2022/04/22 10:24:47;;;;;;;6.18;2.65;;;;;;;;;;5030056;28;20045;-57
2022/04/22 10:27:14;;;;;;;6.80;2.55;;;;;;;;;;5036202;28;20041;-57
2022/04/22 10:29:42;;;;;;;9.13;3.00;;;;;;;;;;5045413;28;20120;-57
2022/04/22 10:32:09;;;;;;;6.85;2.35;;;;;;;;;;5046208;28;20049;-57
2022/04/22 10:34:38;;;;;;;6.68;3.28;;;;;;;;;;5046070;28;20037;-57
2022/04/22 10:37:04;;;;;;;5.38;2.60;;;;;;;;;;5045474;28;20098;-58
2022/04/22 10:39:33;;;;;;;5.18;2.80;;;;;;;;;;5027893;28;20041;-58
2022/04/22 10:41:58;;;;;;;;;;;;;;;;;;5047061;28;20049;-57
2022/04/22 10:47:14;;;;;;;4.00;2.67;;;;;;;;;;5045388;28;20065;-58
2022/04/22 10:49:47;;;;;;;7.50;2.60;;;;;;;;;;5045612;28;20124;-57
2022/04/22 10:52:14;;;;;;;6.57;2.97;;;;;;;;;;5045862;28;20053;-57
2022/04/22 10:54:52;;;;;;;9.13;2.92;;;;;;;;;;5045262;28;20114;-57
2022/04/22 10:57:18;;;;;;;;;;;;;;;;;;5046161;28;20045;-57
2022/04/22 10:59:45;;;;;;;4.43;2.72;;;;;;;;;;5044809;28;19966;-57
2022/04/22 11:02:31;;;;;;;5.97;2.72;;;;;;;;;;5045454;28;20052;-57
2022/04/22 11:05:17;;;;;;;6.43;2.70;;;;;;;;;;5046253;28;20061;-57
2022/04/22 11:07:53;;;;;;;6.43;2.85;;;;;;;;;;5045431;28;20075;-57
2022/04/22 11:10:20;;;;;;;4.85;2.80;;;;;;;;;;5045666;28;20055;-58
2022/04/22 11:12:54;;;;;;;7.03;2.92;;;;;;;;;;5044590;28;20398;-57
2022/04/22 11:15:38;;;;;;;6.75;3.15;;;;;;;;;;5044978;28;20045;-58
2022/04/22 11:18:05;;;;;;;6.78;2.97;;;;;;;;;;5045404;28;20052;-57
2022/04/22 11:20:31;;;;;;;4.88;3.03;;;;;;;;;;5045354;28;20048;-58
2022/04/22 11:22:57;;;;;;;9.02;3.65;;;;;;;;;;5045352;28;20124;-57
2022/04/22 11:25:25;;;;;;;9.15;3.10;;;;;;;;;;5044611;28;20041;-57
2022/04/22 11:27:54;;;;;;;7.60;3.07;;;;;;;;;;5045236;28;20049;-57
2022/04/22 11:30:21;;;;;;;10.85;3.53;;;;;;;;;;5044527;28;20045;-57
2022/04/22 11:32:49;;;;;;;21.88;3.72;;;;;;;;;;5044982;28;20052;-58
2022/04/22 11:35:22;;;;;;;8.73;3.20;;;;;;;;;;5045324;28;20059;-57
2022/04/22 11:37:56;;;;;;;6.88;3.63;;;;;;;;;;5044920;28;20059;-57
2022/04/22 11:40:22;;;;;;;9.25;3.35;;;;;;;;;;5045274;28;20048;-57
2022/04/22 11:42:54;;;;;;;6.68;3.10;;;;;;;;;;5044637;28;20045;-57
2022/04/22 11:45:20;;;;;;;7.93;3.40;;;;;;;;;;5044198;28;20048;-57
2022/04/22 11:47:46;;;;;;;7.25;3.53;;;;;;;;;;5043975;28;20052;-57
2022/04/22 11:50:18;;;;;;;4.97;3.20;;;;;;;;;;5045182;28;20083;-57
2022/04/22 11:52:45;;;;;;;13.02;3.80;;;;;;;;;;5044424;28;20124;-57
2022/04/22 11:55:12;;;;;;;8.27;3.47;;;;;;;;;;5044506;28;20558;-57
2022/04/22 11:57:40;;;;;;;6.40;3.30;;;;;;;;;;5044499;28;20052;-57
2022/04/22 12:05:37;;;;;;;7.55;3.40;;;;;;;;;;5044171;28;20410;-57
2022/04/22 12:08:08;;;;;;;5.88;3.30;;;;;;;;;;5044427;28;20163;-57
2022/04/22 12:10:34;;;;;;;5.78;3.40;;;;;;;;;;5044112;28;20419;-58
2022/04/22 12:13:01;;;;;;;8.07;3.42;;;;;;;;;;5044763;28;20045;-58
2022/04/22 12:15:27;;;;;;;5.75;3.10;;;;;;;;;;5044346;28;20037;-58
2022/04/22 12:17:54;;;;;;;7.15;2.80;;;;;;;;;;5044609;28;20052;-57
2022/04/22 12:20:20;;;;;;;8.82;3.17;;;;;;;;;;5043909;28;20041;-57
2022/04/22 12:22:49;;;;;;;11.85;3.97;;;;;;;;;;5044346;28;20482;-57
2022/04/22 12:25:16;;;;;;;7.47;3.50;;;;;;;;;;5046666;28;20049;-57
2022/04/22 12:27:43;;;;;;;8.20;3.90;;;;;;;;;;5048228;28;20045;-57
2022/04/22 12:30:10;;;;;;;10.40;3.63;;;;;;;;;;5047516;28;20092;-57
2022/04/22 12:32:38;;;;;;;8.70;3.45;;;;;;;;;;5047817;28;20129;-57
2022/04/22 12:35:12;;;;;;;8.32;3.50;;;;;;;;;;5048451;28;20044;-58
2022/04/22 12:37:42;;;;;;;9.07;3.67;;;;;;;;;;5048163;28;20507;-57
2022/04/22 12:40:11;;;;;;;8.65;3.67;;;;;;;;;;5048462;28;20041;-57
2022/04/22 12:42:39;;;;;;;11.45;3.55;;;;;;;;;;5047865;28;20537;-57
2022/04/22 12:53:29;;;;;;;5.35;3.58;;;;;;;;;;5048363;28;20064;-58
2022/04/22 12:56:00;;;;;;;8.75;3.97;;;;;;;;;;5048142;28;20037;-58
2022/04/22 12:58:27;;;;;;;10.38;5.10;;;;;;;;;;5036316;28;20049;-58
2022/04/22 13:00:54;;;;;;;30.30;5.15;;;;;;;;;;5037674;28;20044;-58
2022/04/22 13:03:22;;;;;;;8.82;4.90;;;;;;;;;;5032690;28;20071;-58
2022/04/22 13:05:49;;;;;;;10.30;4.63;;;;;;;;;;5028663;28;20041;-58
2022/04/22 13:08:17;;;;;;;9.05;4.55;;;;;;;;;;5041544;28;20041;-58
2022/04/22 13:10:44;;;;;;;11.07;4.82;;;;;;;;;;5038457;28;20041;-58
2022/04/22 13:13:10;;;;;;;10.80;5.22;;;;;;;;;;5028001;28;20062;-58
2022/04/22 13:15:37;;;;;;;11.50;5.10;;;;;;;;;;5041154;28;20554;-58
2022/04/22 13:18:03;;;;;;;9.90;5.07;;;;;;;;;;5041333;28;20038;-58
2022/04/22 13:20:30;;;;;;;14.45;4.95;;;;;;;;;;5032534;28;20166;-58
2022/04/22 13:22:56;;;;;;;18.40;5.40;;;;;;;;;;5046245;28;20047;-58
2022/04/22 13:25:23;;;;;;;13.15;6.25;;;;;;;;;;5047389;28;20120;-58
2022/04/22 13:27:49;;;;;;;11.45;5.65;;;;;;;;;;5029950;28;20049;-58
2022/04/22 13:30:16;;;;;;;10.50;5.85;;;;;;;;;;5045082;28;20672;-58
2022/04/22 13:32:42;;;;;;;13.38;5.72;;;;;;;;;;5033801;28;20044;-58
2022/04/22 13:35:10;;;;;;;14.23;6.10;;;;;;;;;;5022908;28;20099;-58
2022/04/22 13:37:36;;;;;;;13.65;5.93;;;;;;;;;;5009660;28;20057;-58
2022/04/22 13:40:04;;;;;;;7.57;5.68;;;;;;;;;;5028395;28;20044;-59
2022/04/22 13:42:30;;;;;;;11.10;5.83;;;;;;;;;;5027823;28;20052;-59
2022/04/22 13:53:12;;;;;;;10.23;6.10;;;;;;;;;;5027615;28;20046;-58
2022/04/22 13:55:39;;;;;;;10.57;5.57;;;;;;;;;;5026820;28;20056;-58
2022/04/22 13:58:05;;;;;;;12.18;6.28;;;;;;;;;;5026434;28;20077;-58
2022/04/22 14:00:32;;;;;;;14.27;6.28;;;;;;;;;;5027157;28;20046;-60
2022/04/22 14:02:58;;;;;;;14.52;7.53;;;;;;;;;;5027197;28;20064;-59
2022/04/22 14:05:24;;;;;;;7.90;5.47;;;;;;;;;;5029528;28;20532;-59
2022/04/22 14:07:50;;;;;;;9.55;5.50;;;;;;;;;;5027820;28;20053;-59
2022/04/22 14:10:18;;;;;;;11.68;6.05;;;;;;;;;;5047299;28;20483;-59
2022/04/22 14:12:45;;;;;;;10.95;5.47;;;;;;;;;;5046633;28;20106;-59
2022/04/22 14:15:11;;;;;;;9.77;5.63;;;;;;;;;;5047219;28;20048;-60
2022/04/22 14:17:37;;;;;;;10.57;5.57;;;;;;;;;;5044818;28;20534;-59
2022/04/22 14:20:04;;;;;;;6.70;4.55;;;;;;;;;;5045031;28;20680;-59
2022/04/22 14:22:30;;;;;;;13.30;5.10;;;;;;;;;;5039315;28;20737;-60
2022/04/22 14:24:57;;;;;;;11.93;5.20;;;;;;;;;;5045256;28;20045;-59
2022/04/22 14:27:23;;;;;;;10.68;5.50;;;;;;;;;;5044867;28;20041;-59
2022/04/22 14:29:50;;;;;;;8.98;5.50;;;;;;;;;;5042667;28;20047;-59
2022/04/22 14:32:16;;;;;;;8.65;4.75;;;;;;;;;;5045191;28;20111;-58
2022/04/22 14:34:44;;;;;;;7.75;4.72;;;;;;;;;;5044984;28;20076;-59
2022/04/22 14:37:10;;;;;;;13.85;5.13;;;;;;;;;;5044473;28;20118;-58
2022/04/22 14:39:36;;;;;;;9.23;5.15;;;;;;;;;;5042420;28;20119;-59
2022/04/22 14:42:03;;;;;;;7.90;3.97;;;;;;;;;;5044872;28;20047;-60
2022/04/22 14:44:29;;;;;;;8.13;3.58;;;;;;;;;;5044339;28;20039;-59
2022/04/22 14:46:57;;;;;;;8.60;3.53;;;;;;;;;;5043790;28;20168;-59
2022/04/22 14:49:24;;;;;;;6.13;3.75;;;;;;;;;;5043852;28;20538;-58
2022/04/22 14:51:52;;;;;;;7.40;3.67;;;;;;;;;;5043765;28;20072;-59
2022/04/22 14:54:18;;;;;;;7.28;3.78;;;;;;;;;;5044143;28;20037;-59
2022/04/22 14:56:45;;;;;;;9.02;4.75;;;;;;;;;;5041106;28;20056;-59
2022/04/22 14:59:11;;;;;;;7.32;4.20;;;;;;;;;;5044057;28;20068;-58
2022/04/22 15:01:37;;;;;;;6.63;4.63;;;;;;;;;;5044226;28;20060;-59
2022/04/22 15:04:04;;;;;;;13.82;4.70;;;;;;;;;;5043876;28;20049;-59
2022/04/22 15:06:33;;;;;;;7.45;4.50;;;;;;;;;;5043991;28;20075;-59
2022/04/22 15:09:00;;;;;;;6.95;4.47;;;;;;;;;;5037531;28;20045;-59
2022/04/22 15:11:26;;;;;;;8.88;3.60;;;;;;;;;;5044275;28;20063;-59
2022/04/22 15:13:53;;;;;;;6.60;3.70;;;;;;;;;;5040477;28;20041;-59
2022/04/22 15:16:20;;;;;;;6.50;3.30;;;;;;;;;;5043964;28;20264;-59
2022/04/22 15:24:17;;;;;;;8.63;4.00;;;;;;;;;;5028899;28;20049;-58
2022/04/22 15:26:44;;;;;;;8.52;3.58;;;;;;;;;;5028658;28;20081;-59
2022/04/22 15:29:13;;;;;;;10.15;3.58;;;;;;;;;;5034336;28;20049;-59
2022/04/22 15:31:40;;;;;;;7.00;3.47;;;;;;;;;;5033200;28;20754;-59
2022/04/22 15:34:07;;;;;;;7.70;3.35;;;;;;;;;;5029531;28;20561;-59
2022/04/22 15:36:33;;;;;;;10.38;4.05;;;;;;;;;;5035448;28;20084;-59
2022/04/22 15:39:02;;;;;;;11.70;3.95;;;;;;;;;;5031057;28;20038;-59
2022/04/22 15:41:30;;;;;;;7.22;4.10;;;;;;;;;;5025322;28;20049;-59
2022/04/22 15:43:56;;;;;;;7.57;3.83;;;;;;;;;;5024908;28;20116;-60
2022/04/22 15:46:23;;;;;;;11.23;3.50;;;;;;;;;;5025036;28;20099;-59
2022/04/22 15:48:49;;;;;;;7.53;4.38;;;;;;;;;;5007738;28;20495;-59
2022/04/22 15:51:17;;;;;;;9.65;3.72;;;;;;;;;;5038490;28;20049;-59
2022/04/22 15:53:43;;;;;;;5.38;3.40;;;;;;;;;;5030320;28;20117;-59
2022/04/22 15:56:11;;;;;;;16.20;3.80;;;;;;;;;;5024599;28;20514;-59
2022/04/22 15:58:41;;;;;;;5.68;3.40;;;;;;;;;;5027256;28;20041;-59